sensor_id;sensor_type;location;lat;lon;timestamp;P1;durP1;ratioP1;P2;durP2;ratioP2
22935;SDS011;11633;42.716;23.312;2022-07-23T00:01:28;2.90;;;2.05;;
22935;SDS011;11633;42.716;23.312;2022-07-23T00:03:54;2.92;;;2.28;;
22935;SDS011;11633;42.716;23.312;2022-07-23T00:06:20;2.40;;;2.20;;
22935;SDS011;11633;42.716;23.312;2022-07-23T00:08:45;3.80;;;2.63;;
22935;SDS011;11633;42.716;23.312;2022-07-23T00:11:13;2.30;;;2.10;;
22935;SDS011;11633;42.716;23.312;2022-07-23T00:13:39;2.67;;;1.98;;
22935;SDS011;11633;42.716;23.312;2022-07-23T00:16:04;4.18;;;2.45;;
22935;SDS011;11633;42.716;23.312;2022-07-23T00:18:30;2.95;;;1.95;;
22935;SDS011;11633;42.716;23.312;2022-07-23T00:20:55;3.20;;;2.53;;
22935;SDS011;11633;42.716;23.312;2022-07-23T00:23:20;3.40;;;2.25;;
22935;SDS011;11633;42.716;23.312;2022-07-23T00:25:46;3.80;;;2.47;;
22935;SDS011;11633;42.716;23.312;2022-07-23T00:28:11;4.07;;;2.45;;
22935;SDS011;11633;42.716;23.312;2022-07-23T00:30:37;3.35;;;2.05;;
22935;SDS011;11633;42.716;23.312;2022-07-23T00:33:05;3.35;;;2.67;;
22935;SDS011;11633;42.716;23.312;2022-07-23T00:35:31;4.20;;;2.42;;
22935;SDS011;11633;42.716;23.312;2022-07-23T00:37:57;3.10;;;2.65;;
22935;SDS011;11633;42.716;23.312;2022-07-23T00:40:23;6.22;;;3.83;;
22935;SDS011;11633;42.716;23.312;2022-07-23T00:42:48;4.43;;;3.30;;
22935;SDS011;11633;42.716;23.312;2022-07-23T00:45:14;3.20;;;2.90;;
22935;SDS011;11633;42.716;23.312;2022-07-23T00:47:39;2.90;;;1.95;;
22935;SDS011;11633;42.716;23.312;2022-07-23T00:50:05;3.47;;;2.20;;
22935;SDS011;11633;42.716;23.312;2022-07-23T00:52:31;2.72;;;2.40;;
22935;SDS011;11633;42.716;23.312;2022-07-23T00:54:56;2.47;;;2.03;;
22935;SDS011;11633;42.716;23.312;2022-07-23T00:57:22;3.00;;;2.45;;
22935;SDS011;11633;42.716;23.312;2022-07-23T00:59:47;2.88;;;2.45;;
22935;SDS011;11633;42.716;23.312;2022-07-23T01:02:12;3.00;;;2.22;;
22935;SDS011;11633;42.716;23.312;2022-07-23T01:04:37;4.60;;;2.80;;
22935;SDS011;11633;42.716;23.312;2022-07-23T01:07:03;3.78;;;2.60;;
22935;SDS011;11633;42.716;23.312;2022-07-23T01:09:28;3.88;;;2.45;;
22935;SDS011;11633;42.716;23.312;2022-07-23T01:11:54;3.20;;;2.53;;
22935;SDS011;11633;42.716;23.312;2022-07-23T01:14:19;2.30;;;2.08;;
22935;SDS011;11633;42.716;23.312;2022-07-23T01:16:46;3.15;;;2.50;;
22935;SDS011;11633;42.716;23.312;2022-07-23T01:19:11;3.53;;;2.53;;
22935;SDS011;11633;42.716;23.312;2022-07-23T01:21:40;2.75;;;2.50;;
22935;SDS011;11633;42.716;23.312;2022-07-23T01:24:06;5.82;;;2.33;;
22935;SDS011;11633;42.716;23.312;2022-07-23T01:26:31;2.90;;;2.45;;
22935;SDS011;11633;42.716;23.312;2022-07-23T01:28:57;2.92;;;2.47;;
22935;SDS011;11633;42.716;23.312;2022-07-23T01:31:22;2.70;;;2.00;;
22935;SDS011;11633;42.716;23.312;2022-07-23T01:33:48;2.90;;;2.25;;
22935;SDS011;11633;42.716;23.312;2022-07-23T01:36:13;2.08;;;1.85;;
22935;SDS011;11633;42.716;23.312;2022-07-23T01:38:38;3.53;;;2.67;;
22935;SDS011;11633;42.716;23.312;2022-07-23T01:41:04;4.63;;;2.83;;
22935;SDS011;11633;42.716;23.312;2022-07-23T01:43:29;3.00;;;2.55;;
22935;SDS011;11633;42.716;23.312;2022-07-23T01:45:54;2.65;;;2.15;;
22935;SDS011;11633;42.716;23.312;2022-07-23T01:48:22;2.97;;;2.30;;
22935;SDS011;11633;42.716;23.312;2022-07-23T01:50:48;3.28;;;2.20;;
22935;SDS011;11633;42.716;23.312;2022-07-23T01:53:13;3.72;;;2.08;;
22935;SDS011;11633;42.716;23.312;2022-07-23T01:55:39;3.55;;;2.53;;
22935;SDS011;11633;42.716;23.312;2022-07-23T01:58:04;2.65;;;1.98;;
22935;SDS011;11633;42.716;23.312;2022-07-23T02:00:30;3.42;;;2.33;;
22935;SDS011;11633;42.716;23.312;2022-07-23T02:02:55;2.35;;;1.98;;
22935;SDS011;11633;42.716;23.312;2022-07-23T02:05:20;3.30;;;2.35;;
22935;SDS011;11633;42.716;23.312;2022-07-23T02:07:46;2.47;;;2.15;;
22935;SDS011;11633;42.716;23.312;2022-07-23T02:10:11;3.40;;;2.55;;
22935;SDS011;11633;42.716;23.312;2022-07-23T02:12:36;4.03;;;2.65;;
22935;SDS011;11633;42.716;23.312;2022-07-23T02:15:02;4.07;;;2.55;;
22935;SDS011;11633;42.716;23.312;2022-07-23T02:17:27;2.47;;;2.22;;
22935;SDS011;11633;42.716;23.312;2022-07-23T02:19:52;2.45;;;2.22;;
22935;SDS011;11633;42.716;23.312;2022-07-23T02:22:18;3.50;;;2.88;;
22935;SDS011;11633;42.716;23.312;2022-07-23T02:24:43;3.10;;;2.60;;
22935;SDS011;11633;42.716;23.312;2022-07-23T02:27:08;3.88;;;2.80;;
22935;SDS011;11633;42.716;23.312;2022-07-23T02:29:33;3.80;;;2.70;;
22935;SDS011;11633;42.716;23.312;2022-07-23T02:31:58;2.60;;;2.38;;
22935;SDS011;11633;42.716;23.312;2022-07-23T02:34:24;3.47;;;2.88;;
22935;SDS011;11633;42.716;23.312;2022-07-23T02:36:49;3.20;;;2.63;;
22935;SDS011;11633;42.716;23.312;2022-07-23T02:39:14;3.08;;;2.33;;
22935;SDS011;11633;42.716;23.312;2022-07-23T02:41:39;2.72;;;2.20;;
22935;SDS011;11633;42.716;23.312;2022-07-23T02:44:05;3.78;;;2.65;;
22935;SDS011;11633;42.716;23.312;2022-07-23T02:46:30;3.90;;;2.55;;
22935;SDS011;11633;42.716;23.312;2022-07-23T02:48:55;4.05;;;2.83;;
22935;SDS011;11633;42.716;23.312;2022-07-23T02:51:21;3.55;;;3.17;;
22935;SDS011;11633;42.716;23.312;2022-07-23T02:53:46;6.95;;;3.17;;
22935;SDS011;11633;42.716;23.312;2022-07-23T02:56:11;2.95;;;2.58;;
22935;SDS011;11633;42.716;23.312;2022-07-23T02:58:36;3.65;;;2.75;;
22935;SDS011;11633;42.716;23.312;2022-07-23T03:03:46;4.38;;;2.78;;
22935;SDS011;11633;42.716;23.312;2022-07-23T03:06:11;6.72;;;2.67;;
22935;SDS011;11633;42.716;23.312;2022-07-23T03:08:37;3.15;;;2.67;;
22935;SDS011;11633;42.716;23.312;2022-07-23T03:11:02;4.70;;;3.17;;
22935;SDS011;11633;42.716;23.312;2022-07-23T03:13:27;3.53;;;2.78;;
22935;SDS011;11633;42.716;23.312;2022-07-23T03:15:52;6.57;;;3.53;;
22935;SDS011;11633;42.716;23.312;2022-07-23T03:18:18;4.63;;;3.10;;
22935;SDS011;11633;42.716;23.312;2022-07-23T03:20:43;6.30;;;3.40;;
22935;SDS011;11633;42.716;23.312;2022-07-23T03:23:08;8.07;;;3.35;;
22935;SDS011;11633;42.716;23.312;2022-07-23T03:25:33;4.07;;;3.10;;
22935;SDS011;11633;42.716;23.312;2022-07-23T03:27:59;2.90;;;2.60;;
22935;SDS011;11633;42.716;23.312;2022-07-23T03:30:24;4.30;;;2.90;;
22935;SDS011;11633;42.716;23.312;2022-07-23T03:32:49;3.35;;;3.05;;
22935;SDS011;11633;42.716;23.312;2022-07-23T03:35:14;4.05;;;3.30;;
22935;SDS011;11633;42.716;23.312;2022-07-23T03:37:40;6.00;;;3.00;;
22935;SDS011;11633;42.716;23.312;2022-07-23T03:40:05;5.05;;;2.70;;
22935;SDS011;11633;42.716;23.312;2022-07-23T03:42:30;4.07;;;3.20;;
22935;SDS011;11633;42.716;23.312;2022-07-23T03:44:56;3.25;;;2.95;;
22935;SDS011;11633;42.716;23.312;2022-07-23T03:47:21;3.20;;;2.67;;
22935;SDS011;11633;42.716;23.312;2022-07-23T03:49:47;4.90;;;3.55;;
22935;SDS011;11633;42.716;23.312;2022-07-23T03:52:12;3.30;;;2.60;;
22935;SDS011;11633;42.716;23.312;2022-07-23T03:54:37;5.60;;;3.45;;
22935;SDS011;11633;42.716;23.312;2022-07-23T03:57:03;4.18;;;3.10;;
22935;SDS011;11633;42.716;23.312;2022-07-23T03:59:28;3.85;;;2.65;;
22935;SDS011;11633;42.716;23.312;2022-07-23T04:01:53;4.05;;;3.03;;
22935;SDS011;11633;42.716;23.312;2022-07-23T04:04:19;4.05;;;3.13;;
22935;SDS011;11633;42.716;23.312;2022-07-23T04:06:44;3.78;;;3.20;;
22935;SDS011;11633;42.716;23.312;2022-07-23T04:09:09;3.72;;;3.35;;
22935;SDS011;11633;42.716;23.312;2022-07-23T04:11:34;4.05;;;3.33;;
22935;SDS011;11633;42.716;23.312;2022-07-23T04:14:00;5.70;;;3.92;;
22935;SDS011;11633;42.716;23.312;2022-07-23T04:16:25;4.78;;;4.10;;
22935;SDS011;11633;42.716;23.312;2022-07-23T04:18:50;3.75;;;3.13;;
22935;SDS011;11633;42.716;23.312;2022-07-23T04:21:15;3.25;;;2.95;;
22935;SDS011;11633;42.716;23.312;2022-07-23T04:23:41;4.07;;;3.47;;
22935;SDS011;11633;42.716;23.312;2022-07-23T04:26:06;3.83;;;3.35;;
22935;SDS011;11633;42.716;23.312;2022-07-23T04:28:31;3.58;;;3.28;;
22935;SDS011;11633;42.716;23.312;2022-07-23T04:30:57;4.53;;;3.58;;
22935;SDS011;11633;42.716;23.312;2022-07-23T04:33:22;3.58;;;3.20;;
22935;SDS011;11633;42.716;23.312;2022-07-23T04:35:48;5.03;;;3.75;;
22935;SDS011;11633;42.716;23.312;2022-07-23T04:38:13;4.20;;;3.13;;
22935;SDS011;11633;42.716;23.312;2022-07-23T04:40:38;5.10;;;3.47;;
22935;SDS011;11633;42.716;23.312;2022-07-23T04:43:03;4.40;;;3.87;;
22935;SDS011;11633;42.716;23.312;2022-07-23T04:45:30;9.43;;;5.05;;
22935;SDS011;11633;42.716;23.312;2022-07-23T04:47:55;4.00;;;3.60;;
22935;SDS011;11633;42.716;23.312;2022-07-23T04:50:21;4.45;;;4.05;;
22935;SDS011;11633;42.716;23.312;2022-07-23T04:52:47;4.50;;;3.42;;
22935;SDS011;11633;42.716;23.312;2022-07-23T04:55:12;4.45;;;3.85;;
22935;SDS011;11633;42.716;23.312;2022-07-23T04:57:38;4.55;;;4.15;;
22935;SDS011;11633;42.716;23.312;2022-07-23T05:00:03;4.73;;;3.93;;
22935;SDS011;11633;42.716;23.312;2022-07-23T05:02:29;4.18;;;3.78;;
22935;SDS011;11633;42.716;23.312;2022-07-23T05:04:54;6.00;;;3.97;;
22935;SDS011;11633;42.716;23.312;2022-07-23T05:07:19;4.25;;;3.85;;
22935;SDS011;11633;42.716;23.312;2022-07-23T05:09:45;4.25;;;3.55;;
22935;SDS011;11633;42.716;23.312;2022-07-23T05:12:10;3.83;;;3.20;;
22935;SDS011;11633;42.716;23.312;2022-07-23T05:14:35;3.70;;;3.40;;
22935;SDS011;11633;42.716;23.312;2022-07-23T05:17:01;4.30;;;3.90;;
22935;SDS011;11633;42.716;23.312;2022-07-23T05:19:26;4.43;;;4.03;;
22935;SDS011;11633;42.716;23.312;2022-07-23T05:21:51;5.22;;;3.55;;
22935;SDS011;11633;42.716;23.312;2022-07-23T05:24:17;4.20;;;3.80;;
22935;SDS011;11633;42.716;23.312;2022-07-23T05:26:42;5.75;;;5.25;;
22935;SDS011;11633;42.716;23.312;2022-07-23T05:29:07;3.55;;;3.20;;
22935;SDS011;11633;42.716;23.312;2022-07-23T05:31:32;4.80;;;3.97;;
22935;SDS011;11633;42.716;23.312;2022-07-23T05:33:58;5.07;;;4.50;;
22935;SDS011;11633;42.716;23.312;2022-07-23T05:36:23;3.80;;;3.40;;
22935;SDS011;11633;42.716;23.312;2022-07-23T05:38:48;3.65;;;3.35;;
22935;SDS011;11633;42.716;23.312;2022-07-23T05:41:13;3.63;;;3.33;;
22935;SDS011;11633;42.716;23.312;2022-07-23T05:43:39;9.25;;;4.57;;
22935;SDS011;11633;42.716;23.312;2022-07-23T05:46:04;3.65;;;3.33;;
22935;SDS011;11633;42.716;23.312;2022-07-23T05:48:30;3.95;;;3.17;;
22935;SDS011;11633;42.716;23.312;2022-07-23T05:50:55;3.60;;;3.30;;
22935;SDS011;11633;42.716;23.312;2022-07-23T05:53:20;3.30;;;3.00;;
22935;SDS011;11633;42.716;23.312;2022-07-23T05:55:45;4.05;;;3.53;;
22935;SDS011;11633;42.716;23.312;2022-07-23T05:58:11;3.67;;;3.37;;
22935;SDS011;11633;42.716;23.312;2022-07-23T06:00:36;3.60;;;3.30;;
22935;SDS011;11633;42.716;23.312;2022-07-23T06:03:02;3.67;;;3.38;;
22935;SDS011;11633;42.716;23.312;2022-07-23T06:05:27;4.03;;;3.67;;
22935;SDS011;11633;42.716;23.312;2022-07-23T06:07:52;4.20;;;3.80;;
22935;SDS011;11633;42.716;23.312;2022-07-23T06:10:19;3.50;;;3.20;;
22935;SDS011;11633;42.716;23.312;2022-07-23T06:12:44;3.80;;;3.40;;
22935;SDS011;11633;42.716;23.312;2022-07-23T06:15:10;3.60;;;3.30;;
22935;SDS011;11633;42.716;23.312;2022-07-23T06:17:35;5.57;;;3.83;;
22935;SDS011;11633;42.716;23.312;2022-07-23T06:20:01;4.07;;;3.58;;
22935;SDS011;11633;42.716;23.312;2022-07-23T06:22:26;4.15;;;3.75;;
22935;SDS011;11633;42.716;23.312;2022-07-23T06:24:51;3.07;;;2.87;;
22935;SDS011;11633;42.716;23.312;2022-07-23T06:27:17;3.80;;;3.50;;
22935;SDS011;11633;42.716;23.312;2022-07-23T06:29:42;4.10;;;3.78;;
22935;SDS011;11633;42.716;23.312;2022-07-23T06:32:07;5.07;;;3.60;;
22935;SDS011;11633;42.716;23.312;2022-07-23T06:34:33;3.78;;;3.47;;
22935;SDS011;11633;42.716;23.312;2022-07-23T06:36:59;5.20;;;4.40;;
22935;SDS011;11633;42.716;23.312;2022-07-23T06:39:24;5.82;;;4.38;;
22935;SDS011;11633;42.716;23.312;2022-07-23T06:41:50;5.18;;;4.30;;
22935;SDS011;11633;42.716;23.312;2022-07-23T06:44:15;4.03;;;3.50;;
22935;SDS011;11633;42.716;23.312;2022-07-23T06:46:40;4.53;;;3.65;;
22935;SDS011;11633;42.716;23.312;2022-07-23T06:49:06;4.47;;;4.07;;
22935;SDS011;11633;42.716;23.312;2022-07-23T06:51:31;4.70;;;4.03;;
22935;SDS011;11633;42.716;23.312;2022-07-23T06:53:57;4.40;;;4.00;;
22935;SDS011;11633;42.716;23.312;2022-07-23T06:56:22;4.50;;;4.10;;
22935;SDS011;11633;42.716;23.312;2022-07-23T06:58:47;4.27;;;3.87;;
22935;SDS011;11633;42.716;23.312;2022-07-23T07:01:13;4.18;;;3.63;;
22935;SDS011;11633;42.716;23.312;2022-07-23T07:03:38;4.88;;;4.32;;
22935;SDS011;11633;42.716;23.312;2022-07-23T07:06:03;4.33;;;3.93;;
22935;SDS011;11633;42.716;23.312;2022-07-23T07:08:28;4.53;;;3.75;;
22935;SDS011;11633;42.716;23.312;2022-07-23T07:10:54;3.90;;;3.57;;
22935;SDS011;11633;42.716;23.312;2022-07-23T07:13:19;3.77;;;3.47;;
22935;SDS011;11633;42.716;23.312;2022-07-23T07:15:44;3.55;;;3.25;;
22935;SDS011;11633;42.716;23.312;2022-07-23T07:18:09;3.80;;;3.50;;
22935;SDS011;11633;42.716;23.312;2022-07-23T07:20:35;4.23;;;3.83;;
22935;SDS011;11633;42.716;23.312;2022-07-23T07:23:00;3.28;;;3.03;;
22935;SDS011;11633;42.716;23.312;2022-07-23T07:25:25;3.17;;;2.97;;
22935;SDS011;11633;42.716;23.312;2022-07-23T07:27:50;3.57;;;3.10;;
22935;SDS011;11633;42.716;23.312;2022-07-23T07:30:16;3.30;;;3.00;;
22935;SDS011;11633;42.716;23.312;2022-07-23T07:32:41;3.40;;;3.10;;
22935;SDS011;11633;42.716;23.312;2022-07-23T07:35:06;2.83;;;2.60;;
22935;SDS011;11633;42.716;23.312;2022-07-23T07:37:32;2.58;;;2.38;;
22935;SDS011;11633;42.716;23.312;2022-07-23T07:39:57;2.93;;;2.67;;
22935;SDS011;11633;42.716;23.312;2022-07-23T07:42:22;3.17;;;2.87;;
22935;SDS011;11633;42.716;23.312;2022-07-23T07:44:48;3.70;;;2.80;;
22935;SDS011;11633;42.716;23.312;2022-07-23T07:47:13;3.43;;;3.13;;
22935;SDS011;11633;42.716;23.312;2022-07-23T07:49:40;3.38;;;3.08;;
22935;SDS011;11633;42.716;23.312;2022-07-23T07:52:05;4.07;;;3.10;;
22935;SDS011;11633;42.716;23.312;2022-07-23T07:54:31;3.17;;;2.88;;
22935;SDS011;11633;42.716;23.312;2022-07-23T07:56:57;3.50;;;3.20;;
22935;SDS011;11633;42.716;23.312;2022-07-23T07:59:22;3.17;;;2.88;;
22935;SDS011;11633;42.716;23.312;2022-07-23T08:01:47;3.17;;;2.92;;
22935;SDS011;11633;42.716;23.312;2022-07-23T08:04:13;3.47;;;2.83;;
22935;SDS011;11633;42.716;23.312;2022-07-23T08:06:38;2.97;;;2.60;;
22935;SDS011;11633;42.716;23.312;2022-07-23T08:09:03;2.97;;;2.67;;
22935;SDS011;11633;42.716;23.312;2022-07-23T08:11:28;4.07;;;2.80;;
22935;SDS011;11633;42.716;23.312;2022-07-23T08:13:54;3.53;;;3.23;;
22935;SDS011;11633;42.716;23.312;2022-07-23T08:16:19;3.93;;;2.80;;
22935;SDS011;11633;42.716;23.312;2022-07-23T08:18:44;4.00;;;3.10;;
22935;SDS011;11633;42.716;23.312;2022-07-23T08:21:09;3.50;;;2.60;;
22935;SDS011;11633;42.716;23.312;2022-07-23T08:23:35;2.92;;;2.65;;
22935;SDS011;11633;42.716;23.312;2022-07-23T08:26:00;3.00;;;2.70;;
22935;SDS011;11633;42.716;23.312;2022-07-23T08:28:26;3.37;;;3.07;;
22935;SDS011;11633;42.716;23.312;2022-07-23T08:30:52;4.70;;;4.15;;
22935;SDS011;11633;42.716;23.312;2022-07-23T08:33:17;3.92;;;3.10;;
22935;SDS011;11633;42.716;23.312;2022-07-23T08:35:44;4.00;;;3.10;;
22935;SDS011;11633;42.716;23.312;2022-07-23T08:38:11;3.08;;;2.78;;
22935;SDS011;11633;42.716;23.312;2022-07-23T08:40:38;4.75;;;2.72;;
22935;SDS011;11633;42.716;23.312;2022-07-23T08:43:04;3.55;;;3.13;;
22935;SDS011;11633;42.716;23.312;2022-07-23T08:45:30;5.32;;;3.88;;
22935;SDS011;11633;42.716;23.312;2022-07-23T08:47:56;4.22;;;2.53;;
22935;SDS011;11633;42.716;23.312;2022-07-23T08:50:23;3.92;;;2.90;;
22935;SDS011;11633;42.716;23.312;2022-07-23T08:52:49;3.63;;;3.30;;
22935;SDS011;11633;42.716;23.312;2022-07-23T08:55:18;3.25;;;2.95;;
22935;SDS011;11633;42.716;23.312;2022-07-23T08:57:45;3.40;;;2.78;;
22935;SDS011;11633;42.716;23.312;2022-07-23T09:00:12;4.18;;;3.47;;
22935;SDS011;11633;42.716;23.312;2022-07-23T09:02:38;3.10;;;2.90;;
22935;SDS011;11633;42.716;23.312;2022-07-23T09:05:04;3.55;;;3.25;;
22935;SDS011;11633;42.716;23.312;2022-07-23T09:07:29;3.40;;;3.10;;
22935;SDS011;11633;42.716;23.312;2022-07-23T09:10:04;3.33;;;3.03;;
22935;SDS011;11633;42.716;23.312;2022-07-23T09:12:30;3.45;;;3.03;;
22935;SDS011;11633;42.716;23.312;2022-07-23T09:14:55;3.90;;;3.20;;
22935;SDS011;11633;42.716;23.312;2022-07-23T09:17:28;3.13;;;2.83;;
22935;SDS011;11633;42.716;23.312;2022-07-23T09:20:11;2.83;;;2.63;;
22935;SDS011;11633;42.716;23.312;2022-07-23T09:22:36;4.40;;;3.25;;
22935;SDS011;11633;42.716;23.312;2022-07-23T09:30:23;5.90;;;2.95;;
22935;SDS011;11633;42.716;23.312;2022-07-23T09:33:05;3.20;;;2.78;;
22935;SDS011;11633;42.716;23.312;2022-07-23T09:38:14;2.63;;;2.42;;
22935;SDS011;11633;42.716;23.312;2022-07-23T09:40:40;2.72;;;2.53;;
22935;SDS011;11633;42.716;23.312;2022-07-23T09:43:06;3.97;;;3.25;;
22935;SDS011;11633;42.716;23.312;2022-07-23T09:45:31;4.20;;;2.95;;
22935;SDS011;11633;42.716;23.312;2022-07-23T09:48:15;2.78;;;2.58;;
22935;SDS011;11633;42.716;23.312;2022-07-23T09:50:41;3.08;;;2.88;;
22935;SDS011;11633;42.716;23.312;2022-07-23T09:53:07;3.28;;;2.80;;
22935;SDS011;11633;42.716;23.312;2022-07-23T09:55:33;3.00;;;2.70;;
22935;SDS011;11633;42.716;23.312;2022-07-23T09:58:02;4.82;;;3.13;;
22935;SDS011;11633;42.716;23.312;2022-07-23T10:00:27;3.03;;;2.65;;
22935;SDS011;11633;42.716;23.312;2022-07-23T10:02:53;3.13;;;2.80;;
22935;SDS011;11633;42.716;23.312;2022-07-23T10:05:19;2.50;;;2.30;;
22935;SDS011;11633;42.716;23.312;2022-07-23T10:07:44;2.88;;;2.50;;
22935;SDS011;11633;42.716;23.312;2022-07-23T10:10:10;3.08;;;2.85;;
22935;SDS011;11633;42.716;23.312;2022-07-23T10:12:36;3.28;;;2.95;;
22935;SDS011;11633;42.716;23.312;2022-07-23T10:15:03;5.35;;;3.00;;
22935;SDS011;11633;42.716;23.312;2022-07-23T10:17:29;3.45;;;2.50;;
22935;SDS011;11633;42.716;23.312;2022-07-23T10:19:54;2.17;;;1.98;;
22935;SDS011;11633;42.716;23.312;2022-07-23T10:22:21;3.58;;;2.83;;
22935;SDS011;11633;42.716;23.312;2022-07-23T10:27:39;2.80;;;2.60;;
22935;SDS011;11633;42.716;23.312;2022-07-23T10:40:09;3.10;;;2.90;;
22935;SDS011;11633;42.716;23.312;2022-07-23T10:42:34;2.72;;;2.45;;
22935;SDS011;11633;42.716;23.312;2022-07-23T10:45:03;2.70;;;2.45;;
22935;SDS011;11633;42.716;23.312;2022-07-23T10:47:45;3.00;;;2.35;;
22935;SDS011;11633;42.716;23.312;2022-07-23T10:50:44;2.93;;;2.60;;
22935;SDS011;11633;42.716;23.312;2022-07-23T10:57:58;2.90;;;2.50;;
22935;SDS011;11633;42.716;23.312;2022-07-23T11:00:24;2.17;;;2.00;;
22935;SDS011;11633;42.716;23.312;2022-07-23T11:02:51;2.17;;;1.98;;
22935;SDS011;11633;42.716;23.312;2022-07-23T11:05:18;2.60;;;2.38;;
22935;SDS011;11633;42.716;23.312;2022-07-23T11:10:41;2.90;;;2.15;;
22935;SDS011;11633;42.716;23.312;2022-07-23T11:23:58;3.00;;;2.13;;
22935;SDS011;11633;42.716;23.312;2022-07-23T11:30:02;2.83;;;1.85;;
22935;SDS011;11633;42.716;23.312;2022-07-23T11:31:58;1.92;;;1.70;;
22935;SDS011;11633;42.716;23.312;2022-07-23T11:34:24;2.53;;;2.20;;
22935;SDS011;11633;42.716;23.312;2022-07-23T11:36:52;3.88;;;2.40;;
22935;SDS011;11633;42.716;23.312;2022-07-23T11:39:18;2.28;;;1.60;;
22935;SDS011;11633;42.716;23.312;2022-07-23T11:41:44;4.30;;;1.85;;
22935;SDS011;11633;42.716;23.312;2022-07-23T11:46:54;3.15;;;2.00;;
22935;SDS011;11633;42.716;23.312;2022-07-23T11:49:20;3.60;;;2.00;;
22935;SDS011;11633;42.716;23.312;2022-07-23T11:51:45;3.60;;;2.53;;
22935;SDS011;11633;42.716;23.312;2022-07-23T11:54:11;1.87;;;1.77;;
22935;SDS011;11633;42.716;23.312;2022-07-23T11:56:36;2.20;;;2.00;;
22935;SDS011;11633;42.716;23.312;2022-07-23T11:59:01;3.57;;;2.33;;
22935;SDS011;11633;42.716;23.312;2022-07-23T12:01:26;2.75;;;1.85;;
22935;SDS011;11633;42.716;23.312;2022-07-23T12:03:52;3.93;;;2.67;;
22935;SDS011;11633;42.716;23.312;2022-07-23T12:06:17;3.58;;;2.22;;
22935;SDS011;11633;42.716;23.312;2022-07-23T12:08:43;3.35;;;2.45;;
22935;SDS011;11633;42.716;23.312;2022-07-23T12:11:08;2.70;;;2.08;;
22935;SDS011;11633;42.716;23.312;2022-07-23T12:13:36;2.50;;;2.13;;
22935;SDS011;11633;42.716;23.312;2022-07-23T12:16:02;2.93;;;2.43;;
22935;SDS011;11633;42.716;23.312;2022-07-23T12:18:27;2.55;;;2.35;;
22935;SDS011;11633;42.716;23.312;2022-07-23T12:20:54;3.42;;;2.35;;
22935;SDS011;11633;42.716;23.312;2022-07-23T12:23:22;2.55;;;2.10;;
22935;SDS011;11633;42.716;23.312;2022-07-23T12:25:48;3.60;;;2.33;;
22935;SDS011;11633;42.716;23.312;2022-07-23T12:28:15;2.20;;;2.00;;
22935;SDS011;11633;42.716;23.312;2022-07-23T12:30:52;2.65;;;2.38;;
22935;SDS011;11633;42.716;23.312;2022-07-23T12:33:28;1.88;;;1.70;;
22935;SDS011;11633;42.716;23.312;2022-07-23T12:35:54;3.10;;;1.77;;
22935;SDS011;11633;42.716;23.312;2022-07-23T12:38:21;2.33;;;1.88;;
22935;SDS011;11633;42.716;23.312;2022-07-23T12:40:48;4.63;;;2.10;;
22935;SDS011;11633;42.716;23.312;2022-07-23T12:43:23;2.83;;;1.98;;
22935;SDS011;11633;42.716;23.312;2022-07-23T12:45:50;2.50;;;1.98;;
22935;SDS011;11633;42.716;23.312;2022-07-23T12:48:18;2.03;;;1.83;;
22935;SDS011;11633;42.716;23.312;2022-07-23T12:50:51;2.55;;;1.70;;
22935;SDS011;11633;42.716;23.312;2022-07-23T12:53:18;3.28;;;2.00;;
22935;SDS011;11633;42.716;23.312;2022-07-23T12:55:44;2.78;;;1.98;;
22935;SDS011;11633;42.716;23.312;2022-07-23T12:58:15;4.20;;;2.80;;
22935;SDS011;11633;42.716;23.312;2022-07-23T13:00:54;3.47;;;2.40;;
22935;SDS011;11633;42.716;23.312;2022-07-23T13:03:30;3.13;;;2.30;;
22935;SDS011;11633;42.716;23.312;2022-07-23T13:05:57;3.40;;;2.10;;
22935;SDS011;11633;42.716;23.312;2022-07-23T13:08:22;3.75;;;1.85;;
22935;SDS011;11633;42.716;23.312;2022-07-23T13:10:48;3.42;;;2.05;;
22935;SDS011;11633;42.716;23.312;2022-07-23T13:13:16;3.90;;;1.98;;
22935;SDS011;11633;42.716;23.312;2022-07-23T13:15:42;5.22;;;2.30;;
22935;SDS011;11633;42.716;23.312;2022-07-23T13:18:07;2.47;;;2.28;;
22935;SDS011;11633;42.716;23.312;2022-07-23T13:20:33;2.53;;;2.33;;
22935;SDS011;11633;42.716;23.312;2022-07-23T13:22:59;2.13;;;1.75;;
22935;SDS011;11633;42.716;23.312;2022-07-23T13:25:24;3.13;;;2.38;;
22935;SDS011;11633;42.716;23.312;2022-07-23T13:27:49;1.97;;;1.63;;
22935;SDS011;11633;42.716;23.312;2022-07-23T13:30:15;3.33;;;1.90;;
22935;SDS011;11633;42.716;23.312;2022-07-23T13:32:40;4.53;;;2.07;;
22935;SDS011;11633;42.716;23.312;2022-07-23T13:35:08;4.47;;;2.10;;
22935;SDS011;11633;42.716;23.312;2022-07-23T13:37:33;2.97;;;1.95;;
22935;SDS011;11633;42.716;23.312;2022-07-23T13:39:58;2.00;;;1.80;;
22935;SDS011;11633;42.716;23.312;2022-07-23T13:42:24;2.00;;;1.87;;
22935;SDS011;11633;42.716;23.312;2022-07-23T13:44:49;2.90;;;1.57;;
22935;SDS011;11633;42.716;23.312;2022-07-23T13:47:14;3.67;;;1.80;;
22935;SDS011;11633;42.716;23.312;2022-07-23T13:49:39;2.40;;;1.73;;
22935;SDS011;11633;42.716;23.312;2022-07-23T13:52:05;2.55;;;1.70;;
22935;SDS011;11633;42.716;23.312;2022-07-23T13:54:30;3.03;;;1.67;;
22935;SDS011;11633;42.716;23.312;2022-07-23T13:56:55;3.50;;;1.90;;
22935;SDS011;11633;42.716;23.312;2022-07-23T13:59:21;2.22;;;1.98;;
22935;SDS011;11633;42.716;23.312;2022-07-23T14:01:46;2.53;;;2.20;;
22935;SDS011;11633;42.716;23.312;2022-07-23T14:04:12;2.70;;;2.50;;
22935;SDS011;11633;42.716;23.312;2022-07-23T14:06:37;2.72;;;1.83;;
22935;SDS011;11633;42.716;23.312;2022-07-23T14:09:02;3.97;;;2.00;;
22935;SDS011;11633;42.716;23.312;2022-07-23T14:11:27;2.67;;;1.73;;
22935;SDS011;11633;42.716;23.312;2022-07-23T14:13:55;4.57;;;2.40;;
22935;SDS011;11633;42.716;23.312;2022-07-23T14:16:20;2.10;;;1.80;;
22935;SDS011;11633;42.716;23.312;2022-07-23T14:18:47;2.05;;;1.90;;
22935;SDS011;11633;42.716;23.312;2022-07-23T14:21:12;2.15;;;1.75;;
22935;SDS011;11633;42.716;23.312;2022-07-23T14:23:38;3.60;;;1.52;;
22935;SDS011;11633;42.716;23.312;2022-07-23T14:26:03;2.03;;;1.83;;
22935;SDS011;11633;42.716;23.312;2022-07-23T14:28:28;2.78;;;1.90;;
22935;SDS011;11633;42.716;23.312;2022-07-23T14:30:54;4.85;;;2.15;;
22935;SDS011;11633;42.716;23.312;2022-07-23T14:33:19;3.03;;;1.85;;
22935;SDS011;11633;42.716;23.312;2022-07-23T14:35:45;2.25;;;1.65;;
22935;SDS011;11633;42.716;23.312;2022-07-23T14:38:10;1.80;;;1.70;;
22935;SDS011;11633;42.716;23.312;2022-07-23T14:40:36;2.95;;;1.63;;
22935;SDS011;11633;42.716;23.312;2022-07-23T14:43:01;2.80;;;1.98;;
22935;SDS011;11633;42.716;23.312;2022-07-23T14:45:26;4.50;;;1.53;;
22935;SDS011;11633;42.716;23.312;2022-07-23T14:47:53;3.35;;;1.73;;
22935;SDS011;11633;42.716;23.312;2022-07-23T14:50:18;2.13;;;1.80;;
22935;SDS011;11633;42.716;23.312;2022-07-23T14:52:44;4.67;;;1.90;;
22935;SDS011;11633;42.716;23.312;2022-07-23T14:55:09;2.40;;;1.75;;
22935;SDS011;11633;42.716;23.312;2022-07-23T14:57:34;3.07;;;2.17;;
22935;SDS011;11633;42.716;23.312;2022-07-23T14:59:59;3.13;;;2.03;;
22935;SDS011;11633;42.716;23.312;2022-07-23T15:02:25;2.35;;;1.90;;
22935;SDS011;11633;42.716;23.312;2022-07-23T15:04:50;3.17;;;2.22;;
22935;SDS011;11633;42.716;23.312;2022-07-23T15:07:15;3.40;;;1.70;;
22935;SDS011;11633;42.716;23.312;2022-07-23T15:09:40;2.20;;;2.00;;
22935;SDS011;11633;42.716;23.312;2022-07-23T15:12:06;2.67;;;2.20;;
22935;SDS011;11633;42.716;23.312;2022-07-23T15:14:31;1.63;;;1.52;;